createdAt,value
2018-06-23T00:01:40.012Z,10.37
2018-06-23T00:04:06.829Z,10.38
2018-06-23T00:06:33.587Z,10.34
2018-06-23T00:09:00.314Z,10.37
2018-06-23T00:11:27.024Z,10.33
2018-06-23T00:13:53.775Z,10.34
2018-06-23T00:16:20.501Z,10.18
2018-06-23T00:18:47.255Z,10.37
2018-06-23T00:21:13.962Z,10.24
2018-06-23T00:23:40.610Z,10.26
2018-06-23T00:26:13.021Z,10.27
2018-06-23T00:28:39.781Z,10.16
2018-06-23T00:31:06.489Z,10.17
2018-06-23T00:33:33.181Z,10.17
2018-06-23T00:35:59.888Z,10.23
2018-06-23T00:38:26.566Z,10.17
2018-06-23T00:40:53.341Z,10.18
2018-06-23T00:43:20.074Z,9.86
2018-06-23T00:45:46.762Z,9.94
2018-06-23T00:48:13.515Z,9.89
2018-06-23T00:50:40.293Z,9.88
2018-06-23T00:53:07.077Z,9.92
2018-06-23T00:55:33.804Z,10.02
2018-06-23T00:58:00.560Z,10.02
2018-06-23T01:00:27.344Z,9.82
2018-06-23T01:02:54.044Z,9.97
2018-06-23T01:05:20.823Z,10.00
2018-06-23T01:07:47.525Z,9.98
2018-06-23T01:10:14.293Z,9.99
2018-06-23T01:12:41.058Z,10.01
2018-06-23T01:15:07.788Z,10.01
2018-06-23T01:17:34.473Z,9.96
2018-06-23T01:20:01.240Z,9.99
2018-06-23T01:22:27.945Z,10.02
2018-06-23T01:24:54.672Z,10.01
2018-06-23T01:27:21.403Z,9.99
2018-06-23T01:29:48.081Z,9.94
2018-06-23T01:32:14.790Z,9.92
2018-06-23T01:34:41.511Z,9.92
2018-06-23T01:37:08.250Z,9.88
2018-06-23T01:39:34.977Z,9.90
2018-06-23T01:42:02.242Z,9.83
2018-06-23T01:44:28.937Z,9.76
2018-06-23T01:46:55.697Z,9.72
2018-06-23T01:49:22.370Z,9.70
2018-06-23T01:51:49.032Z,9.57
2018-06-23T01:54:15.805Z,9.56
2018-06-23T01:56:42.499Z,9.51
2018-06-23T01:59:09.165Z,9.38
2018-06-23T02:01:36.651Z,9.31
2018-06-23T02:04:03.401Z,9.26
2018-06-23T02:06:30.187Z,9.26
2018-06-23T02:08:56.881Z,9.26
2018-06-23T02:11:23.702Z,9.32
2018-06-23T02:13:56.305Z,9.34
2018-06-23T02:16:28.647Z,9.31
2018-06-23T02:19:01.203Z,9.31
2018-06-23T02:21:33.561Z,9.29
2018-06-23T02:24:06.124Z,9.32
2018-06-23T02:26:38.572Z,9.33
2018-06-23T02:29:10.953Z,9.33
2018-06-23T02:31:49.159Z,9.40
2018-06-23T02:34:24.730Z,9.40
2018-06-23T02:36:58.303Z,9.27
2018-06-23T02:39:27.133Z,9.14
2018-06-23T02:41:53.827Z,9.18
2018-06-23T02:47:06.201Z,9.11
2018-06-23T02:49:32.929Z,9.12
2018-06-23T02:51:59.627Z,9.08
2018-06-23T02:54:26.318Z,9.04
2018-06-23T02:56:53.017Z,9.05
2018-06-23T02:59:19.982Z,9.11
2018-06-23T03:01:46.978Z,9.04
2018-06-23T03:04:13.739Z,9.03
2018-06-23T03:06:40.450Z,9.07
2018-06-23T03:09:07.205Z,9.08
2018-06-23T03:11:34.036Z,9.06
2018-06-23T03:14:00.741Z,9.03
2018-06-23T03:16:27.494Z,9.02
2018-06-23T03:18:54.274Z,8.91
2018-06-23T03:21:21.052Z,8.83
2018-06-23T03:23:47.777Z,8.90
2018-06-23T03:26:14.497Z,8.88
2018-06-23T03:28:41.257Z,8.97
2018-06-23T03:31:08.048Z,8.97
2018-06-23T03:33:34.766Z,8.97
2018-06-23T03:36:01.503Z,8.90
2018-06-23T03:38:28.310Z,8.91
2018-06-23T03:40:55.115Z,8.89
2018-06-23T03:43:21.917Z,8.90
2018-06-23T03:45:48.930Z,8.79
2018-06-23T03:48:15.718Z,8.84
2018-06-23T03:50:42.467Z,8.24
2018-06-23T03:53:09.352Z,8.99
2018-06-23T03:55:36.139Z,9.02
2018-06-23T03:58:02.883Z,9.06
2018-06-23T04:00:30.558Z,9.11
2018-06-23T04:02:57.797Z,8.94
2018-06-23T04:05:24.564Z,8.86
2018-06-23T04:07:51.372Z,8.66
2018-06-23T04:10:22.137Z,8.61
2018-06-23T04:12:48.894Z,8.77
2018-06-23T04:15:15.659Z,8.80
2018-06-23T04:17:42.387Z,8.90
2018-06-23T04:20:09.128Z,8.98
2018-06-23T04:22:35.949Z,8.99
2018-06-23T04:25:02.694Z,9.15
2018-06-23T04:27:29.490Z,9.19
2018-06-23T04:29:56.288Z,9.29
2018-06-23T04:32:23.081Z,9.39
2018-06-23T04:34:49.872Z,9.41
2018-06-23T04:37:16.651Z,8.45
2018-06-23T04:39:43.455Z,9.34
2018-06-23T04:42:10.267Z,9.28
2018-06-23T04:44:37.058Z,9.31
2018-06-23T04:47:03.816Z,9.40
2018-06-23T04:49:30.683Z,9.50
2018-06-23T04:51:57.473Z,9.49
2018-06-23T04:54:24.361Z,9.55
2018-06-23T04:56:51.138Z,9.63
2018-06-23T04:59:17.977Z,9.71
2018-06-23T05:01:44.803Z,9.67
2018-06-23T05:04:11.589Z,9.65
2018-06-23T05:06:38.378Z,9.75
2018-06-23T05:09:06.001Z,9.89
2018-06-23T05:11:32.854Z,9.96
2018-06-23T05:14:00.052Z,10.12
2018-06-23T05:16:26.841Z,9.59
2018-06-23T05:18:53.699Z,10.18
2018-06-23T05:21:20.487Z,10.24
2018-06-23T05:23:47.225Z,10.31
2018-06-23T05:26:14.021Z,10.38
2018-06-23T05:28:40.828Z,10.46
2018-06-23T05:31:07.537Z,10.51
2018-06-23T05:33:34.319Z,10.54
2018-06-23T05:36:01.046Z,10.62
2018-06-23T05:38:27.838Z,10.75
2018-06-23T05:40:54.648Z,11.01
2018-06-23T05:43:21.457Z,11.21
2018-06-23T05:45:49.282Z,11.34
2018-06-23T05:48:16.106Z,11.56
2018-06-23T05:50:43.285Z,11.80
2018-06-23T05:53:10.135Z,12.07
2018-06-23T05:55:40.653Z,12.10
2018-06-23T05:58:07.484Z,12.49
2018-06-23T06:00:34.263Z,12.67
2018-06-23T06:03:01.586Z,12.81
2018-06-23T06:05:28.997Z,12.94
2018-06-23T06:07:56.389Z,13.07
2018-06-23T06:10:23.745Z,13.19
2018-06-23T06:12:51.043Z,13.32
2018-06-23T06:15:18.401Z,13.44
2018-06-23T06:17:46.981Z,13.61
2018-06-23T06:20:15.277Z,13.81
2018-06-23T06:22:43.758Z,13.86
2018-06-23T06:25:11.836Z,14.13
2018-06-23T06:27:39.405Z,14.35
2018-06-23T06:30:07.985Z,14.50
2018-06-23T06:32:35.329Z,14.57
2018-06-23T06:35:02.850Z,14.77
2018-06-23T06:37:30.455Z,14.80
2018-06-23T06:40:05.211Z,14.92
2018-06-23T06:42:32.653Z,15.05
2018-06-23T06:44:59.991Z,15.18
2018-06-23T06:47:27.447Z,15.30
2018-06-23T06:49:54.902Z,15.55
2018-06-23T06:52:22.288Z,15.62
2018-06-23T06:54:49.737Z,15.56
2018-06-23T06:57:17.172Z,15.69
2018-06-23T06:59:44.617Z,16.11
2018-06-23T07:02:12.088Z,15.75
2018-06-23T07:04:39.475Z,16.07
2018-06-23T07:07:06.887Z,16.00
2018-06-23T07:09:34.185Z,15.68
2018-06-23T07:12:01.565Z,16.27
2018-06-23T07:14:28.954Z,16.81
2018-06-23T07:16:56.330Z,17.32
2018-06-23T07:19:23.676Z,17.25
2018-06-23T07:21:50.992Z,17.33
2018-06-23T07:24:18.338Z,17.30
2018-06-23T07:26:45.810Z,17.67
2018-06-23T07:29:13.200Z,17.58
2018-06-23T07:31:40.600Z,17.30
2018-06-23T07:34:07.898Z,17.01
2018-06-23T07:36:35.345Z,16.85
2018-06-23T07:39:03.579Z,16.70
2018-06-23T07:41:30.888Z,16.67
2018-06-23T07:43:58.303Z,16.60
2018-06-23T07:46:25.805Z,16.75
2018-06-23T07:48:53.119Z,16.71
2018-06-23T07:51:20.579Z,16.67
2018-06-23T07:53:47.926Z,16.60
2018-06-23T07:56:15.286Z,17.01
2018-06-23T07:58:42.654Z,17.02
2018-06-23T08:01:10.049Z,17.33
2018-06-23T08:03:37.814Z,17.77
2018-06-23T08:06:05.451Z,17.85
2018-06-23T08:08:32.783Z,17.78
2018-06-23T08:11:00.134Z,17.62
2018-06-23T08:13:27.600Z,17.53
2018-06-23T08:15:54.783Z,17.31
2018-06-23T08:18:22.105Z,17.14
2018-06-23T08:20:49.454Z,17.12
2018-06-23T08:23:16.787Z,17.76
2018-06-23T08:25:44.178Z,18.20
2018-06-23T08:28:11.532Z,18.17
2018-06-23T08:30:39.026Z,17.76
2018-06-23T08:33:06.417Z,17.48
2018-06-23T08:35:33.885Z,17.61
2018-06-23T08:38:01.286Z,18.02
2018-06-23T08:40:28.695Z,18.19
2018-06-23T08:42:56.022Z,18.07
2018-06-23T08:45:23.354Z,17.99
2018-06-23T08:47:50.786Z,17.83
2018-06-23T08:50:18.118Z,17.39
2018-06-23T08:52:45.464Z,17.52
2018-06-23T08:55:12.843Z,18.11
2018-06-23T08:57:40.250Z,18.26
2018-06-23T09:00:08.986Z,18.28
2018-06-23T09:02:36.430Z,18.14
2018-06-23T09:05:04.240Z,17.83
2018-06-23T09:07:31.622Z,17.78
2018-06-23T09:09:59.012Z,17.83
2018-06-23T09:12:26.731Z,18.08
2018-06-23T09:14:54.880Z,18.51
2018-06-23T09:17:22.271Z,18.63
2018-06-23T09:19:49.612Z,18.19
2018-06-23T09:22:16.913Z,18.18
2018-06-23T09:24:44.140Z,18.15
2018-06-23T09:27:11.486Z,17.76
2018-06-23T09:29:46.390Z,17.79
2018-06-23T09:32:13.780Z,17.67
2018-06-23T09:34:41.390Z,17.82
2018-06-23T09:37:08.776Z,18.38
2018-06-23T09:39:36.437Z,18.78
2018-06-23T09:42:05.463Z,18.76
2018-06-23T09:44:32.871Z,18.62
2018-06-23T09:47:00.179Z,18.60
2018-06-23T09:49:27.529Z,18.68
2018-06-23T09:51:54.951Z,18.73
2018-06-23T09:54:22.338Z,18.65
2018-06-23T09:56:51.338Z,18.41
2018-06-23T09:59:23.760Z,18.41
2018-06-23T10:01:51.187Z,18.92
2018-06-23T10:04:21.642Z,19.26
2018-06-23T10:06:49.055Z,19.41
2018-06-23T10:09:16.453Z,19.32
2018-06-23T10:11:43.810Z,19.37
2018-06-23T10:14:11.211Z,19.30
2018-06-23T10:16:38.803Z,19.26
2018-06-23T10:19:06.180Z,19.20
2018-06-23T10:21:33.579Z,19.88
2018-06-23T10:24:00.985Z,20.54
2018-06-23T10:26:28.448Z,21.18
2018-06-23T10:28:55.748Z,21.10
2018-06-23T10:31:23.590Z,20.39
2018-06-23T10:33:51.442Z,20.48
2018-06-23T10:36:18.833Z,20.40
2018-06-23T10:38:46.273Z,20.31
2018-06-23T10:41:14.800Z,20.46
2018-06-23T10:43:42.270Z,20.58
2018-06-23T10:46:09.639Z,20.16
2018-06-23T10:48:37.100Z,19.84
2018-06-23T10:51:04.534Z,19.82
2018-06-23T10:53:31.958Z,19.97
2018-06-23T10:55:59.253Z,20.28
2018-06-23T10:58:26.650Z,20.79
2018-06-23T11:00:54.204Z,20.86
2018-06-23T11:03:21.580Z,21.13
2018-06-23T11:05:48.951Z,21.24
2018-06-23T11:08:16.491Z,21.69
2018-06-23T11:10:43.900Z,21.94
2018-06-23T11:13:11.189Z,21.27
2018-06-23T11:15:38.684Z,21.63
2018-06-23T11:18:06.049Z,21.62
2018-06-23T11:20:33.505Z,21.43
2018-06-23T11:23:00.923Z,21.79
2018-06-23T11:25:28.288Z,21.94
2018-06-23T11:27:57.459Z,21.58
2018-06-23T11:30:24.823Z,21.05
2018-06-23T11:32:52.431Z,21.11
2018-06-23T11:35:31.836Z,21.19
2018-06-23T11:38:01.854Z,20.92
2018-06-23T11:40:29.769Z,21.32
2018-06-23T11:42:57.190Z,21.97
2018-06-23T11:45:24.510Z,22.07
2018-06-23T11:47:51.967Z,21.60
2018-06-23T11:50:19.410Z,21.05
2018-06-23T11:52:49.061Z,20.81
2018-06-23T11:55:16.546Z,21.25
2018-06-23T11:57:43.868Z,21.62
2018-06-23T12:00:11.187Z,21.95
2018-06-23T12:02:38.584Z,22.19
2018-06-23T12:05:05.966Z,22.09
2018-06-23T12:07:33.314Z,22.47
2018-06-23T12:10:00.702Z,22.82
2018-06-23T12:12:28.160Z,22.92
2018-06-23T12:15:08.368Z,23.04
2018-06-23T12:17:35.744Z,23.37
2018-06-23T12:20:03.257Z,23.18
2018-06-23T12:22:30.789Z,22.87
2018-06-23T12:24:58.186Z,22.93
2018-06-23T12:27:25.633Z,23.29
2018-06-23T12:29:52.967Z,23.17
2018-06-23T12:32:20.360Z,23.06
2018-06-23T12:34:47.780Z,23.18
2018-06-23T12:37:16.484Z,23.47
2018-06-23T12:39:49.002Z,23.66
2018-06-23T12:42:19.982Z,23.31
2018-06-23T12:44:47.322Z,23.34
2018-06-23T12:47:14.633Z,23.32
2018-06-23T12:49:41.942Z,23.66
2018-06-23T12:52:09.360Z,24.15
2018-06-23T12:54:36.711Z,24.43
2018-06-23T12:57:04.108Z,24.46
2018-06-23T12:59:32.864Z,24.11
2018-06-23T13:02:00.210Z,24.17
2018-06-23T13:04:27.575Z,24.31
2018-06-23T13:06:54.879Z,24.23
2018-06-23T13:09:22.252Z,24.43
2018-06-23T13:11:49.641Z,24.11
2018-06-23T13:14:17.040Z,24.11
2018-06-23T13:16:44.438Z,24.35
2018-06-23T13:19:11.844Z,24.53
2018-06-23T13:21:39.239Z,24.37
2018-06-23T13:24:06.625Z,24.76
2018-06-23T13:26:34.056Z,24.80
2018-06-23T13:29:01.490Z,24.84
2018-06-23T13:31:28.768Z,24.48
2018-06-23T13:33:56.115Z,24.34
2018-06-23T13:36:23.438Z,24.50
2018-06-23T13:38:50.778Z,24.53
2018-06-23T13:41:18.204Z,24.77
2018-06-23T13:43:45.519Z,24.55
2018-06-23T13:46:12.880Z,24.44
2018-06-23T13:48:40.279Z,24.43
2018-06-23T13:51:07.661Z,24.69
2018-06-23T13:53:35.027Z,24.65
2018-06-23T13:56:02.527Z,24.81
2018-06-23T13:58:29.891Z,24.54
2018-06-23T14:00:57.253Z,24.17
2018-06-23T14:03:26.541Z,24.66
2018-06-23T14:05:54.004Z,24.40
2018-06-23T14:08:21.540Z,24.14
2018-06-23T14:10:48.864Z,24.35
2018-06-23T14:13:16.233Z,24.52
2018-06-23T14:15:43.581Z,24.41
2018-06-23T14:18:11.041Z,24.52
2018-06-23T14:20:38.425Z,24.75
2018-06-23T14:23:05.762Z,25.13
2018-06-23T14:25:33.158Z,24.96
2018-06-23T14:28:00.514Z,25.10
2018-06-23T14:30:27.927Z,25.02
2018-06-23T14:32:55.259Z,25.10
2018-06-23T14:35:22.698Z,24.69
2018-06-23T14:37:50.084Z,24.68
2018-06-23T14:40:17.468Z,25.17
2018-06-23T14:42:44.846Z,25.12
2018-06-23T14:45:12.199Z,25.27
2018-06-23T14:47:39.574Z,25.41
2018-06-23T14:50:06.966Z,25.15
2018-06-23T14:52:34.319Z,25.18
2018-06-23T14:55:01.694Z,24.93
2018-06-23T14:57:29.209Z,25.26
2018-06-23T14:59:56.646Z,25.62
2018-06-23T15:02:24.075Z,25.46
2018-06-23T15:04:51.367Z,25.34
2018-06-23T15:07:18.795Z,24.48
2018-06-23T15:09:57.486Z,24.32
2018-06-23T15:12:36.513Z,24.66
2018-06-23T15:15:03.955Z,24.44
2018-06-23T15:17:31.443Z,24.63
2018-06-23T15:19:58.879Z,24.94
2018-06-23T15:22:26.275Z,25.07
2018-06-23T15:24:53.643Z,24.99
2018-06-23T15:27:22.012Z,24.96
2018-06-23T15:29:49.317Z,25.03
2018-06-23T15:32:16.648Z,24.80
2018-06-23T15:34:43.990Z,24.70
2018-06-23T15:37:11.396Z,24.91
2018-06-23T15:39:38.798Z,24.54
2018-06-23T15:42:06.142Z,24.37
2018-06-23T15:44:33.560Z,23.89
2018-06-23T15:47:00.913Z,23.63
2018-06-23T15:49:28.303Z,23.95
2018-06-23T15:51:55.649Z,24.31
2018-06-23T15:54:23.039Z,24.27
2018-06-23T15:56:50.333Z,24.16
2018-06-23T15:59:18.077Z,23.95
2018-06-23T16:01:45.517Z,24.14
2018-06-23T16:04:12.857Z,23.97
2018-06-23T16:06:40.231Z,23.77
2018-06-23T16:09:09.181Z,23.85
2018-06-23T16:11:37.565Z,23.71
2018-06-23T16:14:05.068Z,23.85
2018-06-23T16:16:32.552Z,23.42
2018-06-23T16:18:59.932Z,23.47
2018-06-23T16:21:27.481Z,23.41
2018-06-23T16:23:54.784Z,22.97
2018-06-23T16:26:22.143Z,22.89
2018-06-23T16:28:49.599Z,22.86
2018-06-23T16:31:17.083Z,22.87
2018-06-23T16:33:50.869Z,22.40
2018-06-23T16:36:18.348Z,22.35
2018-06-23T16:38:48.867Z,22.28
2018-06-23T16:41:16.405Z,22.25
2018-06-23T16:43:43.780Z,21.77
2018-06-23T16:46:11.169Z,21.88
2018-06-23T16:48:38.612Z,21.67
2018-06-23T16:51:06.001Z,21.71
2018-06-23T16:53:33.287Z,21.85
2018-06-23T16:56:00.608Z,21.83
2018-06-23T16:58:27.910Z,21.62
2018-06-23T17:00:55.296Z,21.54
2018-06-23T17:03:22.679Z,21.67
2018-06-23T17:05:50.161Z,21.58
2018-06-23T17:08:17.594Z,21.68
2018-06-23T17:10:45.019Z,21.63
2018-06-23T17:13:12.393Z,21.74
2018-06-23T17:15:40.092Z,21.78
2018-06-23T17:18:07.725Z,21.59
2018-06-23T17:20:35.031Z,21.75
2018-06-23T17:23:02.384Z,21.52
2018-06-23T17:25:29.803Z,21.41
2018-06-23T17:27:59.350Z,21.18
2018-06-23T17:30:26.924Z,21.16
2018-06-23T17:32:56.110Z,21.21
2018-06-23T17:35:23.520Z,20.92
2018-06-23T17:37:51.094Z,20.58
2018-06-23T17:40:18.376Z,20.43
2018-06-23T17:42:46.284Z,20.41
2018-06-23T17:45:13.776Z,20.46
2018-06-23T17:47:41.148Z,20.17
2018-06-23T17:50:08.697Z,20.18
2018-06-23T17:52:37.404Z,20.14
2018-06-23T17:55:05.011Z,19.93
2018-06-23T17:57:35.134Z,20.03
2018-06-23T18:00:06.166Z,20.07
2018-06-23T18:02:34.914Z,19.85
2018-06-23T18:05:03.604Z,19.62
2018-06-23T18:07:31.190Z,19.91
2018-06-23T18:09:58.601Z,19.77
2018-06-23T18:12:26.049Z,19.71
2018-06-23T18:14:54.528Z,19.77
2018-06-23T18:17:21.897Z,19.74
2018-06-23T18:19:49.276Z,19.58
2018-06-23T18:22:16.677Z,19.43
2018-06-23T18:24:44.049Z,19.59
2018-06-23T18:27:11.400Z,19.39
2018-06-23T18:29:38.731Z,19.56
2018-06-23T18:32:07.329Z,19.41
2018-06-23T18:34:35.114Z,19.37
2018-06-23T18:37:03.264Z,19.19
2018-06-23T18:39:30.591Z,18.90
2018-06-23T18:41:57.960Z,18.83
2018-06-23T18:44:25.295Z,18.85
2018-06-23T18:46:52.718Z,18.82
2018-06-23T18:49:20.120Z,18.90
2018-06-23T18:51:48.209Z,18.82
2018-06-23T18:54:16.661Z,18.78
2018-06-23T18:56:44.070Z,18.79
2018-06-23T18:59:11.462Z,18.69
2018-06-23T19:01:45.091Z,18.52
2018-06-23T19:04:13.205Z,18.52
2018-06-23T19:06:43.794Z,18.65
2018-06-23T19:09:14.441Z,18.62
2018-06-23T19:11:43.281Z,18.60
2018-06-23T19:14:13.784Z,18.25
2018-06-23T19:16:41.157Z,18.02
2018-06-23T19:19:08.466Z,17.89
2018-06-23T19:21:35.800Z,17.90
2018-06-23T19:24:08.521Z,17.77
2018-06-23T19:26:39.826Z,17.69
2018-06-23T19:29:13.131Z,17.77
2018-06-23T19:31:45.337Z,17.93
2018-06-23T19:34:14.162Z,17.76
2018-06-23T19:36:47.440Z,17.73
2018-06-23T19:39:15.190Z,17.67
2018-06-23T19:41:42.640Z,17.55
2018-06-23T19:44:10.205Z,17.41
2018-06-23T19:46:37.452Z,17.43
2018-06-23T19:49:10.588Z,17.18
2018-06-23T19:51:38.136Z,17.18
2018-06-23T19:54:05.462Z,17.34
2018-06-23T19:56:41.904Z,17.47
2018-06-23T19:59:09.747Z,17.42
2018-06-23T20:01:38.700Z,17.38
2018-06-23T20:04:06.067Z,17.37
2018-06-23T20:06:33.436Z,16.76
2018-06-23T20:09:00.794Z,17.46
2018-06-23T20:11:28.218Z,17.39
2018-06-23T20:13:55.529Z,17.34
2018-06-23T20:16:22.849Z,17.51
2018-06-23T20:18:51.226Z,17.34
2018-06-23T20:21:18.656Z,17.34
2018-06-23T20:23:46.097Z,17.28
2018-06-23T20:26:13.525Z,17.33
2018-06-23T20:28:40.860Z,17.20
2018-06-23T20:31:08.249Z,17.27
2018-06-23T20:33:35.645Z,17.33
2018-06-23T20:36:03.608Z,17.30
2018-06-23T20:38:30.990Z,17.08
2018-06-23T20:40:58.699Z,17.04
2018-06-23T20:43:26.030Z,16.97
2018-06-23T20:45:53.424Z,16.99
2018-06-23T20:48:20.741Z,16.96
2018-06-23T20:50:48.126Z,16.80
2018-06-23T20:53:15.482Z,16.78
2018-06-23T20:55:42.952Z,16.73
2018-06-23T20:58:10.288Z,16.65
2018-06-23T21:00:37.628Z,16.70
2018-06-23T21:03:05.010Z,16.60
2018-06-23T21:05:32.345Z,16.65
2018-06-23T21:07:59.748Z,16.66
2018-06-23T21:10:36.516Z,16.72
2018-06-23T21:13:03.836Z,16.63
2018-06-23T21:15:32.177Z,16.54
2018-06-23T21:18:00.189Z,16.54
2018-06-23T21:20:30.439Z,16.48
2018-06-23T21:23:02.185Z,16.58
2018-06-23T21:25:34.652Z,16.54
2018-06-23T21:28:02.901Z,16.45
2018-06-23T21:30:30.474Z,16.50
2018-06-23T21:33:08.720Z,16.27
2018-06-23T21:35:36.136Z,16.24
2018-06-23T21:38:05.043Z,16.22
2018-06-23T21:40:34.843Z,15.92
2018-06-23T21:43:05.243Z,15.90
2018-06-23T21:45:34.107Z,15.82
2018-06-23T21:48:03.064Z,15.74
2018-06-23T21:50:32.450Z,15.73
2018-06-23T21:52:59.960Z,15.77
2018-06-23T21:55:27.446Z,15.74
2018-06-23T21:57:54.812Z,15.71
2018-06-23T22:00:30.732Z,15.72
2018-06-23T22:02:58.704Z,15.65
2018-06-23T22:05:26.039Z,15.67
2018-06-23T22:07:53.478Z,15.58
2018-06-23T22:10:20.930Z,15.42
2018-06-23T22:12:48.341Z,15.29
2018-06-23T22:15:19.436Z,15.37
2018-06-23T22:17:46.867Z,15.27
2018-06-23T22:20:14.288Z,15.24
2018-06-23T22:22:41.639Z,15.17
2018-06-23T22:25:09.033Z,15.20
2018-06-23T22:27:36.915Z,15.25
2018-06-23T22:30:04.442Z,15.20
2018-06-23T22:32:31.822Z,15.24
2018-06-23T22:34:59.201Z,15.13
2018-06-23T22:37:26.708Z,15.09
2018-06-23T22:39:54.058Z,15.00
2018-06-23T22:42:21.373Z,14.96
2018-06-23T22:44:48.805Z,14.84
2018-06-23T22:47:16.210Z,12.52
2018-06-23T22:49:43.513Z,14.86
2018-06-23T22:52:10.973Z,14.86
2018-06-23T22:54:38.311Z,14.90
2018-06-23T22:57:05.935Z,14.81
2018-06-23T22:59:33.164Z,14.75
2018-06-23T23:02:00.592Z,14.73
2018-06-23T23:04:27.896Z,14.69
2018-06-23T23:06:55.307Z,14.63
2018-06-23T23:09:22.569Z,14.62
2018-06-23T23:11:49.899Z,14.60
2018-06-23T23:14:17.256Z,14.62
2018-06-23T23:16:44.633Z,14.59
2018-06-23T23:19:11.933Z,14.54
2018-06-23T23:21:39.272Z,14.55
2018-06-23T23:24:06.665Z,14.37
2018-06-23T23:26:33.977Z,14.49
2018-06-23T23:29:01.341Z,14.44
2018-06-23T23:31:28.760Z,14.38
2018-06-23T23:33:56.239Z,14.38
2018-06-23T23:36:23.661Z,14.32
2018-06-23T23:38:51.018Z,14.21
2018-06-23T23:41:18.356Z,14.17
2018-06-23T23:43:45.694Z,14.08
2018-06-23T23:46:12.987Z,14.03
2018-06-23T23:48:40.411Z,14.02
2018-06-23T23:51:10.754Z,13.97
2018-06-23T23:53:38.029Z,13.94
2018-06-23T23:56:07.387Z,13.88
2018-06-23T23:58:37.726Z,13.79
